Time;durP1;ratioP1;P1;durP2;ratioP2;P2;SDS_P1;SDS_P2;PMS_P1;PMS_P2;Temp;Humidity;BMP_temperature;BMP_pressure;BME280_temperature;BME280_humidity;BME280_pressure;Samples;Min_cycle;Max_cycle;Signal;HPM_P1;HPM_P2
2022/01/30 00:00:37;;;;;;;1.50;0.80;;;;;;;3.38;100.00;96889.38;5031931;28;20029;-79
2022/01/30 00:03:03;;;;;;;1.50;0.97;;;;;;;3.36;100.00;96886.88;5018483;28;20029;-78
2022/01/30 00:05:30;;;;;;;2.47;1.07;;;;;;;3.39;100.00;96896.25;5061546;28;20033;-77
2022/01/30 00:07:56;;;;;;;1.83;1.10;;;;;;;3.38;100.00;96897.16;5030635;28;20033;-77
2022/01/30 00:10:22;;;;;;;3.03;1.17;;;;;;;3.39;100.00;96902.28;5010390;28;20041;-78
2022/01/30 00:12:52;;;;;;;2.40;1.20;;;;;;;3.43;100.00;96903.75;5020174;28;20064;-77
2022/01/30 00:15:23;;;;;;;1.20;0.87;;;;;;;3.41;100.00;96895.22;5026221;28;20060;-77
2022/01/30 00:18:05;;;;;;;3.40;1.10;;;;;;;3.42;100.00;96901.25;5018957;28;20041;-77
2022/01/30 00:20:33;;;;;;;2.07;1.30;;;;;;;3.44;100.00;96904.59;5014804;28;20037;-77
2022/01/30 00:23:10;;;;;;;2.37;1.10;;;;;;;3.43;100.00;96908.13;5032498;28;20045;-76
2022/01/30 00:25:47;;;;;;;1.90;1.03;;;;;;;3.46;100.00;96894.94;5049575;28;20030;-76
2022/01/30 00:28:15;;;;;;;1.90;1.10;;;;;;;3.46;100.00;96892.34;5040199;28;20478;-76
2022/01/30 00:30:41;;;;;;;2.63;1.63;;;;;;;3.44;100.00;96895.00;5016657;28;20095;-76
2022/01/30 00:33:06;;;;;;;2.33;1.10;;;;;;;3.48;100.00;96888.69;5036085;28;20064;-77
2022/01/30 00:35:38;;;;;;;1.87;1.17;;;;;;;3.46;100.00;96887.97;5020563;28;20521;-79
2022/01/30 00:38:10;;;;;;;3.13;1.50;;;;;;;3.45;100.00;96893.25;5034361;28;20024;-76
2022/01/30 00:40:36;;;;;;;2.40;1.10;;;;;;;3.47;100.00;96889.63;5032823;28;20033;-77
2022/01/30 00:43:03;;;;;;;3.43;1.53;;;;;;;3.45;100.00;96888.88;5017525;28;20036;-76
2022/01/30 00:45:29;;;;;;;2.53;1.20;;;;;;;3.51;100.00;96885.06;5033761;28;20079;-76
2022/01/30 00:47:55;;;;;;;2.50;1.30;;;;;;;3.49;100.00;96886.94;5026250;28;20033;-76
2022/01/30 00:50:21;;;;;;;2.87;1.40;;;;;;;3.50;100.00;96879.03;5032142;28;20025;-77
2022/01/30 00:52:52;;;;;;;2.17;1.30;;;;;;;3.49;100.00;96886.94;5035001;28;20025;-76
2022/01/30 00:55:17;;;;;;;3.10;1.40;;;;;;;3.47;100.00;96887.03;5036843;28;20102;-76
2022/01/30 00:57:43;;;;;;;2.10;1.30;;;;;;;3.45;100.00;96888.88;5039360;28;20120;-77
2022/01/30 01:00:09;;;;;;;1.63;1.00;;;;;;;3.44;100.00;96883.78;5026200;28;20139;-77
2022/01/30 01:02:35;;;;;;;3.10;1.70;;;;;;;3.41;100.00;96894.38;5014158;28;20042;-76
2022/01/30 01:05:04;;;;;;;3.47;1.70;;;;;;;3.41;100.00;96900.41;5031833;28;20387;-76
2022/01/30 01:07:32;;;;;;;2.67;1.43;;;;;;;3.38;100.00;96900.59;5009567;28;20030;-76
2022/01/30 01:10:08;;;;;;;2.27;1.27;;;;;;;3.41;100.00;96905.59;5038385;28;20060;-76
2022/01/30 01:23:33;;;;;;;1.80;0.93;;;;;;;3.44;100.00;96915.81;5040868;28;20029;-76
2022/01/30 01:26:00;;;;;;;4.03;1.97;;;;;;;3.45;100.00;96914.88;5033272;28;20030;-77
2022/01/30 01:28:27;;;;;;;4.90;2.00;;;;;;;3.44;100.00;96915.81;5020009;28;20051;-76
2022/01/30 01:30:53;;;;;;;3.73;1.80;;;;;;;3.45;100.00;96909.66;5056395;28;20460;-77
2022/01/30 01:33:19;;;;;;;3.33;1.70;;;;;;;3.44;100.00;96902.81;5063016;28;20033;-77
2022/01/30 01:35:47;;;;;;;3.63;1.70;;;;;;;3.46;100.00;96892.34;5011977;28;20062;-76
2022/01/30 01:38:14;;;;;;;3.03;1.63;;;;;;;3.46;100.00;96893.16;5033567;28;20428;-76
2022/01/30 01:40:42;;;;;;;2.77;1.70;;;;;;;3.46;100.00;96895.75;5028611;28;20036;-76
2022/01/30 01:43:08;;;;;;;4.70;1.97;;;;;;;3.44;100.00;96892.41;5019470;28;20033;-77
2022/01/30 01:45:38;;;;;;;3.27;1.67;;;;;;;3.40;100.00;96895.31;5015661;28;20036;-77
2022/01/30 01:48:10;;;;;;;3.10;2.03;;;;;;;3.40;100.00;96893.56;5037280;28;20028;-77
2022/01/30 01:50:39;;;;;;;3.40;1.87;;;;;;;3.41;100.00;96900.41;5036520;28;20040;-77
2022/01/30 01:53:08;;;;;;;4.37;1.97;;;;;;;3.43;100.00;96898.56;5031248;28;20044;-76
2022/01/30 01:55:35;;;;;;;3.67;2.00;;;;;;;3.44;100.00;96886.38;5032837;28;20544;-76
2022/01/30 01:58:02;;;;;;;4.50;2.17;;;;;;;3.44;100.00;96892.41;5016747;28;20513;-77
2022/01/30 02:00:40;;;;;;;4.43;2.10;;;;;;;3.45;100.00;96891.47;5058538;28;20037;-76
2022/01/30 02:03:06;;;;;;;5.87;3.20;;;;;;;3.50;100.00;96886.81;5017319;28;20032;-76
2022/01/30 02:05:34;;;;;;;4.67;2.47;;;;;;;3.46;100.00;96877.56;5030201;28;20445;-76
2022/01/30 02:10:40;;;;;;;4.47;2.50;;;;;;;3.50;100.00;96879.03;5036204;28;20145;-77
2022/01/30 02:13:37;;;;;;;5.70;2.73;;;;;;;3.54;100.00;96872.69;5013287;28;20095;-77
2022/01/30 02:24:25;;;;;;;6.20;2.70;;;;;;;3.67;100.00;96879.69;5035708;28;20302;-78
2022/01/30 02:26:51;;;;;;;4.87;2.30;;;;;;;3.68;100.00;96873.53;5020892;28;20029;-79
2022/01/30 02:29:19;;;;;;;8.03;3.33;;;;;;;3.74;100.00;96878.34;5032693;28;20482;-77
2022/01/30 02:31:44;;;;;;;5.60;2.83;;;;;;;3.74;100.00;96886.16;5033049;28;20029;-77
2022/01/30 02:34:10;;;;;;;6.67;3.10;;;;;;;3.75;100.00;96882.59;5013726;28;20532;-77
2022/01/30 02:36:50;;;;;;;7.93;4.70;;;;;;;3.84;100.00;96886.38;5025850;28;20026;-77
2022/01/30 02:39:18;;;;;;;7.10;4.07;;;;;;;3.90;100.00;96884.22;5008921;28;20087;-76
2022/01/30 02:41:44;;;;;;;7.43;4.23;;;;;;;3.95;100.00;96884.72;5036299;28;20124;-77
2022/01/30 02:44:16;;;;;;;7.13;4.10;;;;;;;3.97;100.00;96884.63;5035553;28;20025;-77
2022/01/30 02:46:44;;;;;;;6.67;3.20;;;;;;;4.07;100.00;96882.25;5034095;28;20087;-77
2022/01/30 02:52:00;;;;;;;6.00;3.37;;;;;;;4.16;100.00;96879.88;5031618;28;20046;-77
2022/01/30 02:54:27;;;;;;;8.00;4.00;;;;;;;4.20;100.00;96894.34;5033981;28;20033;-77
2022/01/30 02:56:53;;;;;;;6.17;3.73;;;;;;;4.23;100.00;96894.13;5017984;28;20029;-76
2022/01/30 02:59:20;;;;;;;7.33;4.30;;;;;;;4.24;100.00;96897.56;5039012;28;20025;-78
2022/01/30 03:01:45;;;;;;;6.17;3.50;;;;;;;4.21;100.00;96906.41;5013313;28;20038;-77
2022/01/30 03:04:11;;;;;;;7.70;4.10;;;;;;;4.20;100.00;96896.94;5012953;28;20399;-76
2022/01/30 03:06:37;;;;;;;5.77;3.20;;;;;;;4.19;100.00;96904.81;5014346;28;20044;-76
2022/01/30 03:09:05;;;;;;;4.80;2.13;;;;;;;4.16;100.00;96892.88;5032211;28;20466;-76
2022/01/30 03:11:31;;;;;;;5.87;2.70;;;;;;;4.18;100.00;96879.75;5014036;28;20105;-77
2022/01/30 03:13:58;;;;;;;6.80;2.87;;;;;;;4.18;100.00;96887.56;5034885;28;20057;-76
2022/01/30 03:16:24;;;;;;;4.00;2.27;;;;;;;4.14;100.00;96888.69;5014128;28;20029;-76
2022/01/30 03:18:50;;;;;;;6.70;3.33;;;;;;;4.20;100.00;96883.09;5022931;28;20384;-77
2022/01/30 03:21:19;;;;;;;6.77;3.17;;;;;;;4.15;100.00;96890.34;5010649;28;20036;-77
2022/01/30 03:23:45;;;;;;;8.63;3.93;;;;;;;4.17;100.00;96899.75;5038938;28;20041;-77
2022/01/30 03:26:13;;;;;;;5.90;3.37;;;;;;;4.13;100.00;96887.88;5030532;28;20042;-77
2022/01/30 03:29:05;;;;;;;5.80;3.37;;;;;;;4.17;100.00;96885.91;5029951;28;20061;-77
2022/01/30 03:31:37;;;;;;;6.93;3.65;;;;;;;4.15;100.00;96887.75;5028401;28;20488;-77
2022/01/30 03:34:04;;;;;;;9.70;3.60;;;;;;;4.12;100.00;96888.78;5034564;28;21598;-78
2022/01/30 03:36:43;;;;;;;9.37;3.50;;;;;;;4.13;100.00;96884.44;5016626;28;20115;-77
2022/01/30 03:39:09;;;;;;;10.47;4.73;;;;;;;4.13;100.00;96892.25;5022793;28;20037;-77
2022/01/30 03:41:35;;;;;;;5.60;3.50;;;;;;;4.12;100.00;96899.19;5057616;28;20026;-77
2022/01/30 03:44:03;;;;;;;7.10;4.10;;;;;;;4.10;100.00;96900.25;5033715;28;20067;-77
2022/01/30 03:46:29;;;;;;;6.80;3.90;;;;;;;4.05;100.00;96889.31;5021295;28;20038;-77
2022/01/30 03:48:55;;;;;;;8.33;3.93;;;;;;;4.05;100.00;96903.16;5010457;28;20029;-77
2022/01/30 03:51:28;;;;;;;;;;;;;;;4.03;100.00;96901.63;5032831;28;20120;-76
2022/01/30 03:53:58;;;;;;;8.27;3.80;;;;;;;4.05;100.00;96902.31;5025739;28;19971;-77
2022/01/30 03:56:24;;;;;;;10.90;4.30;;;;;;;4.04;100.00;96903.28;5022112;28;20586;-77
2022/01/30 03:58:50;;;;;;;9.90;4.67;;;;;;;4.04;100.00;96908.47;5067339;28;20102;-77
2022/01/30 04:01:16;;;;;;;7.50;4.50;;;;;;;4.06;100.00;96917.00;5037982;28;20060;-77
2022/01/30 04:03:43;;;;;;;7.37;3.80;;;;;;;4.08;100.00;96909.94;5031831;28;20041;-76
2022/01/30 04:06:09;;;;;;;19.60;5.27;;;;;;;4.06;100.00;96912.66;5033351;28;20112;-79
2022/01/30 04:08:37;;;;;;;11.20;5.13;;;;;;;4.09;100.00;96916.78;5045483;28;20118;-77
2022/01/30 04:11:13;;;;;;;13.13;4.47;;;;;;;4.12;100.00;96917.44;5021812;28;20045;-77
2022/01/30 04:14:17;;;;;;;10.30;4.68;;;;;;;4.09;100.00;96929.81;5035187;28;20038;-79
2022/01/30 04:17:09;;;;;;;12.50;4.73;;;;;;;4.09;100.00;96920.25;5030936;28;20061;-77
2022/01/30 04:20:03;;;;;;;9.77;4.57;;;;;;;4.07;100.00;96923.88;5024924;28;20092;-77
2022/01/30 04:22:47;;;;;;;10.25;4.55;;;;;;;4.09;100.00;96924.59;5033733;28;20044;-77
2022/01/30 04:25:51;;;;;;;9.98;4.38;;;;;;;4.04;100.00;96918.88;5009498;28;20046;-80
2022/01/30 04:28:40;;;;;;;11.63;4.43;;;;;;;4.06;100.00;96933.47;4980235;28;20038;-77
2022/01/30 04:31:25;;;;;;;8.13;4.00;;;;;;;4.08;100.00;96942.00;5027653;28;20048;-77
2022/01/30 04:34:10;;;;;;;8.53;3.93;;;;;;;4.08;100.00;96946.38;5034173;28;20044;-77
2022/01/30 04:37:03;;;;;;;9.57;3.73;;;;;;;4.10;100.00;96949.72;5039872;28;20036;-77
2022/01/30 04:58:21;;;;;;;10.70;4.70;;;;;;;3.76;100.00;96965.78;5038470;28;20021;-78
2022/01/30 05:09:37;;;;;;;13.37;5.97;;;;;;;3.75;100.00;96979.69;5036408;28;20063;-77
2022/01/30 05:12:13;;;;;;;15.43;7.20;;;;;;;3.67;100.00;96978.53;5059093;28;20033;-79
2022/01/30 05:15:03;;;;;;;10.27;3.97;;;;;;;3.67;100.00;96978.53;5025586;28;20124;-79
2022/01/30 05:17:47;;;;;;;10.63;3.93;;;;;;;3.70;100.00;96988.75;5029535;28;20025;-78
2022/01/30 05:20:29;;;;;;;12.33;4.30;;;;;;;3.72;100.00;96992.91;5033135;28;20031;-78
2022/01/30 05:23:05;;;;;;;13.83;3.50;;;;;;;3.71;100.00;96995.59;5023266;28;20033;-78
2022/01/30 05:25:35;;;;;;;11.67;3.80;;;;;;;3.79;100.00;96995.97;5036267;28;20042;-78
2022/01/30 05:28:19;;;;;;;11.80;3.33;;;;;;;3.64;100.00;97000.38;5034438;28;20031;-79
2022/01/30 05:31:17;;;;;;;10.90;4.53;;;;;;;3.63;100.00;97003.06;5030602;28;20037;-79
2022/01/30 05:34:13;;;;;;;9.07;3.13;;;;;;;3.65;100.00;97006.41;5035170;28;20037;-79
2022/01/30 05:36:50;;;;;;;11.17;2.93;;;;;;;3.64;100.00;97007.34;5030634;28;20033;-79
2022/01/30 05:39:35;;;;;;;11.03;3.80;;;;;;;3.63;100.00;97003.91;5036348;28;20052;-78
2022/01/30 05:42:26;;;;;;;11.97;3.33;;;;;;;3.59;100.00;97014.56;5039495;28;20045;-78
2022/01/30 05:45:21;;;;;;;14.10;3.43;;;;;;;3.66;100.00;97008.09;5038660;28;20045;-78
2022/01/30 05:48:15;;;;;;;12.50;3.70;;;;;;;3.63;100.00;97016.06;5036979;28;20794;-78
2022/01/30 05:50:54;;;;;;;13.93;3.53;;;;;;;3.57;100.00;97014.69;5070329;28;20030;-78
2022/01/30 05:53:40;;;;;;;13.60;4.73;;;;;;;3.61;100.00;97015.31;5040807;28;20068;-80
2022/01/30 05:56:12;;;;;;;9.90;3.37;;;;;;;3.63;100.00;97016.06;5022118;28;20025;-80
2022/01/30 05:58:39;;;;;;;9.60;3.97;;;;;;;3.57;100.00;97016.47;5030248;28;20128;-78
2022/01/30 06:01:38;;;;;;;16.13;3.97;;;;;;;3.54;100.00;97038.28;5012168;28;20021;-78
2022/01/30 06:04:17;;;;;;;13.07;4.10;;;;;;;3.53;100.00;97047.84;5027143;28;20022;-78
2022/01/30 06:06:50;;;;;;;10.93;3.70;;;;;;;3.57;100.00;97050.28;5028930;28;20037;-78
2022/01/30 06:11:41;;;;;;;19.63;4.73;;;;;;;3.49;100.00;97055.97;5031408;28;20514;-79
2022/01/30 06:14:07;;;;;;;13.93;4.00;;;;;;;3.44;100.00;97053.63;5021478;28;20061;-78
2022/01/30 06:16:34;;;;;;;9.73;4.17;;;;;;;3.39;100.00;97058.28;5030916;28;20033;-78
2022/01/30 06:19:08;;;;;;;13.83;3.63;;;;;;;3.33;100.00;97066.47;5063335;28;20102;-78
2022/01/30 06:21:53;;;;;;;8.83;3.07;;;;;;;3.34;100.00;97052.53;5033574;28;20047;-78
2022/01/30 06:24:37;;;;;;;13.33;3.40;;;;;;;3.39;100.00;97047.06;5033565;28;20111;-78
2022/01/30 06:27:06;;;;;;;14.07;3.20;;;;;;;3.36;100.00;97055.88;5035754;28;20037;-78
2022/01/30 06:29:50;;;;;;;9.93;3.10;;;;;;;3.31;100.00;97050.94;5031632;28;20045;-78
2022/01/30 06:32:19;;;;;;;10.00;3.13;;;;;;;3.35;100.00;97064.59;5029521;28;20402;-78
2022/01/30 06:35:04;;;;;;;14.90;4.43;;;;;;;3.29;100.00;97060.63;5030375;28;20125;-77
2022/01/30 06:37:53;;;;;;;9.97;2.93;;;;;;;3.27;100.00;97065.06;5030491;28;20045;-78
2022/01/30 06:40:39;;;;;;;18.30;4.83;;;;;;;3.22;100.00;97076.66;5036547;28;20056;-78
2022/01/30 06:43:13;;;;;;;12.53;3.33;;;;;;;3.22;100.00;97082.72;5030836;28;20041;-81
2022/01/30 06:46:01;;;;;;;9.00;3.70;;;;;;;3.19;100.00;97090.69;5020347;28;20029;-78
2022/01/30 06:48:45;;;;;;;9.63;3.80;;;;;;;3.16;100.00;97090.06;5023648;28;20091;-78
2022/01/30 06:51:34;;;;;;;12.87;2.97;;;;;;;3.18;100.00;97101.16;5035406;28;20069;-78
2022/01/30 06:54:18;;;;;;;10.60;3.17;;;;;;;3.16;100.00;97109.06;5041834;28;20401;-78
2022/01/30 06:57:02;;;;;;;10.73;4.33;;;;;;;3.16;100.00;97116.88;5036607;28;20094;-78
2022/01/30 06:59:46;;;;;;;17.87;6.57;;;;;;;3.19;100.00;97108.91;5033776;28;20391;-78
2022/01/30 07:02:31;;;;;;;10.60;3.17;;;;;;;3.12;100.00;97122.31;5027478;28;20095;-78
2022/01/30 07:05:31;;;;;;;14.17;3.83;;;;;;;3.12;100.00;97127.53;5004920;28;20042;-78
2022/01/30 07:08:23;;;;;;;13.23;3.80;;;;;;;3.10;100.00;97125.03;5048874;28;20033;-78
2022/01/30 07:10:49;;;;;;;13.83;4.47;;;;;;;3.13;100.00;97124.03;5032523;28;20037;-78
2022/01/30 07:13:14;;;;;;;13.03;3.47;;;;;;;3.14;100.00;97136.91;5026639;28;20034;-78
2022/01/30 07:15:43;;;;;;;14.43;4.03;;;;;;;3.12;100.00;97132.72;5035341;28;20026;-78
2022/01/30 07:18:09;;;;;;;9.10;4.07;;;;;;;3.07;100.00;97135.59;5030734;28;20043;-77
2022/01/30 07:20:34;;;;;;;11.80;3.57;;;;;;;3.07;100.00;97140.81;5036412;28;20033;-77
2022/01/30 07:23:01;;;;;;;16.47;3.57;;;;;;;3.02;100.00;97142.84;5031849;28;20037;-77
2022/01/30 07:25:27;;;;;;;8.90;2.87;;;;;;;3.02;100.00;97145.44;5019321;28;20112;-77
2022/01/30 07:27:52;;;;;;;11.20;3.43;;;;;;;2.95;100.00;97142.38;5036827;28;20120;-77
2022/01/30 07:30:18;;;;;;;15.03;3.67;;;;;;;2.99;100.00;97138.66;5018848;28;20497;-76
2022/01/30 07:32:44;;;;;;;18.33;3.27;;;;;;;2.92;100.00;97139.97;5017734;28;20029;-78
2022/01/30 07:35:10;;;;;;;14.00;3.50;;;;;;;2.89;100.00;97140.13;5013890;28;20047;-78
2022/01/30 07:37:36;;;;;;;17.50;4.33;;;;;;;2.90;100.00;97139.19;5033015;28;20060;-79
2022/01/30 07:40:04;;;;;;;11.63;3.00;;;;;;;2.94;100.00;97135.47;5038072;28;20490;-78
2022/01/30 07:42:30;;;;;;;16.67;3.87;;;;;;;2.99;100.00;97148.22;5013707;28;20318;-77
2022/01/30 07:44:57;;;;;;;9.60;3.47;;;;;;;3.01;100.00;97139.38;5059268;28;20052;-77
2022/01/30 07:47:22;;;;;;;13.50;3.43;;;;;;;2.98;100.00;97131.78;5031777;28;20057;-78
2022/01/30 07:49:51;;;;;;;12.10;3.57;;;;;;;3.00;100.00;97132.53;5023753;28;20231;-77
2022/01/30 07:52:23;;;;;;;18.00;3.53;;;;;;;2.88;100.00;97135.00;5029399;28;20033;-78
2022/01/30 07:54:49;;;;;;;11.13;3.10;;;;;;;2.72;100.00;97127.28;5025540;28;20119;-77
2022/01/30 07:57:17;;;;;;;11.30;2.80;;;;;;;2.65;100.00;97133.75;5024090;28;20036;-76
2022/01/30 07:59:43;;;;;;;14.27;3.73;;;;;;;2.63;100.00;97122.63;5007527;28;20123;-77
2022/01/30 08:02:09;;;;;;;9.77;3.10;;;;;;;2.67;100.00;97124.09;5029943;28;20053;-78
2022/01/30 08:04:35;;;;;;;18.47;3.23;;;;;;;2.76;100.00;97121.81;5028849;28;20104;-76
2022/01/30 08:07:03;;;;;;;16.17;3.40;;;;;;;2.73;100.00;97123.75;5059884;28;20144;-77
2022/01/30 08:09:29;;;;;;;11.73;2.70;;;;;;;2.75;100.00;97119.28;5028310;28;20103;-78
2022/01/30 08:11:56;;;;;;;9.63;3.03;;;;;;;2.82;100.00;97120.63;5053815;28;20029;-78
2022/01/30 08:14:21;;;;;;;17.67;4.03;;;;;;;2.86;100.00;97116.09;5039014;28;20029;-78
2022/01/30 08:16:47;;;;;;;13.37;3.17;;;;;;;2.98;100.00;97123.97;5017672;28;20072;-77
2022/01/30 08:19:13;;;;;;;11.23;2.60;;;;;;;2.74;100.00;97122.81;5009092;28;20033;-78
2022/01/30 08:21:39;;;;;;;18.47;3.10;;;;;;;2.69;100.00;97106.69;5008492;28;20034;-77
2022/01/30 08:24:05;;;;;;;10.37;3.30;;;;;;;2.69;100.00;97117.06;5032939;28;20033;-78
2022/01/30 08:26:31;;;;;;;13.10;3.33;;;;;;;2.53;100.00;97115.34;5032125;28;20029;-78
2022/01/30 08:28:57;;;;;;;14.50;3.03;;;;;;;2.58;100.00;97112.47;5033018;28;20647;-78
2022/01/30 08:31:24;;;;;;;14.60;3.77;;;;;;;2.76;100.00;97113.19;5031143;28;20025;-78
2022/01/30 08:33:50;;;;;;;19.00;4.53;;;;;;;2.72;100.00;97106.50;5010320;28;20045;-78
2022/01/30 08:36:15;;;;;;;13.37;3.60;;;;;;;2.76;100.00;97110.59;5038577;28;20093;-78
2022/01/30 08:38:43;;;;;;;18.30;3.67;;;;;;;2.80;100.00;97117.28;5020221;28;20376;-77
2022/01/30 08:41:09;;;;;;;17.47;4.13;;;;;;;2.95;100.00;97118.13;5029818;28;20031;-77
2022/01/30 08:43:36;;;;;;;19.93;7.77;;;;;;;3.32;100.00;97132.41;5034278;28;20041;-78
2022/01/30 08:46:03;;;;;;;20.27;8.70;;;;;;;3.49;100.00;97141.78;5031272;28;20343;-78
2022/01/30 08:48:31;;;;;;;15.23;3.33;;;;;;;3.48;100.00;97146.13;5020046;28;20044;-78
2022/01/30 08:50:57;;;;;;;12.07;3.57;;;;;;;3.13;100.00;97155.22;5034682;28;20040;-79
2022/01/30 08:53:23;;;;;;;12.63;3.53;;;;;;;3.15;100.00;97161.13;5011961;28;20128;-78
2022/01/30 08:55:49;;;;;;;16.67;5.43;;;;;;;3.02;100.00;97156.69;5035682;28;20549;-78
2022/01/30 08:58:15;;;;;;;19.47;4.23;;;;;;;3.13;100.00;97166.44;5028905;28;20033;-78
2022/01/30 09:00:44;;;;;;;22.63;3.83;;;;;;;3.17;100.00;97167.09;5049248;28;20064;-77
2022/01/30 09:03:10;;;;;;;25.60;9.03;;;;;;;3.25;100.00;97178.72;5019152;28;20088;-79
2022/01/30 09:05:36;;;;;;;24.47;6.17;;;;;;;3.46;100.00;97188.75;5033245;28;20032;-77
2022/01/30 09:08:04;;;;;;;20.57;5.07;;;;;;;3.39;100.00;97196.09;5029883;28;20029;-78
2022/01/30 09:10:35;;;;;;;21.77;4.90;;;;;;;3.78;100.00;97184.19;5038025;28;20086;-78
2022/01/30 09:13:01;;;;;;;16.73;3.93;;;;;;;3.88;100.00;97193.09;5072378;28;20072;-77
2022/01/30 09:15:27;;;;;;;17.23;3.63;;;;;;;4.14;100.00;97195.88;5035122;28;20455;-77
2022/01/30 09:17:57;;;;;;;14.10;3.23;;;;;;;4.62;100.00;97196.28;5033856;28;20356;-78
2022/01/30 09:20:24;;;;;;;17.17;4.27;;;;;;;5.41;100.00;97191.03;5031541;28;20398;-76
2022/01/30 09:22:51;;;;;;;22.33;5.10;;;;;;;5.67;100.00;97197.09;5023521;28;20029;-78
2022/01/30 09:25:18;;;;;;;19.60;4.83;;;;;;;6.30;94.00;97197.09;5060033;28;20359;-78
2022/01/30 09:27:44;;;;;;;17.97;3.80;;;;;;;5.77;93.68;97193.81;5015282;28;20044;-77
2022/01/30 09:30:11;;;;;;;17.20;4.00;;;;;;;6.70;94.42;97189.00;5010585;28;20105;-78
2022/01/30 09:32:36;;;;;;;13.23;3.50;;;;;;;6.44;89.65;97191.75;5015895;28;20034;-78
2022/01/30 09:35:03;;;;;;;20.73;4.90;;;;;;;5.90;91.87;97195.50;5019805;28;20040;-78
2022/01/30 09:37:29;;;;;;;13.97;3.33;;;;;;;6.31;87.17;97194.41;5017110;28;20072;-78
2022/01/30 09:39:54;;;;;;;16.83;3.80;;;;;;;6.13;86.57;97193.91;5014168;28;20061;-79
2022/01/30 09:42:23;;;;;;;21.87;3.30;;;;;;;6.66;83.37;97195.41;5030889;28;20033;-77
2022/01/30 09:44:49;;;;;;;13.43;3.10;;;;;;;7.02;80.86;97189.28;5037267;28;20029;-78
2022/01/30 09:47:17;;;;;;;18.57;3.93;;;;;;;6.96;78.72;97197.56;5019954;28;20075;-77
2022/01/30 09:49:49;;;;;;;10.90;2.37;;;;;;;6.54;78.43;97215.44;5033496;28;20041;-79
2022/01/30 09:52:15;;;;;;;16.20;2.87;;;;;;;6.86;75.08;97194.78;5034453;28;20071;-77
2022/01/30 09:54:42;;;;;;;12.17;3.50;;;;;;;6.13;77.95;97200.91;5063236;28;20124;-77
2022/01/30 09:57:08;;;;;;;11.43;2.77;;;;;;;5.09;81.58;97208.00;5041353;28;20038;-80
2022/01/30 09:59:34;;;;;;;14.93;3.83;;;;;;;4.77;82.56;97195.31;5015346;28;20040;-77
2022/01/30 10:02:06;;;;;;;16.47;3.80;;;;;;;4.77;85.27;97205.72;5030409;28;20037;-78
2022/01/30 10:04:33;;;;;;;15.03;3.00;;;;;;;4.69;86.73;97210.59;5016993;28;20557;-78
2022/01/30 10:07:08;;;;;;;20.77;3.47;;;;;;;5.20;84.04;97189.88;5018640;28;20050;-77
2022/01/30 10:09:36;;;;;;;10.27;2.60;;;;;;;5.52;79.29;97186.84;5040260;28;20029;-77
2022/01/30 10:12:16;;;;;;;13.13;3.07;;;;;;;5.11;78.79;97187.88;5023031;28;20033;-78
2022/01/30 10:15:00;;;;;;;14.10;2.83;;;;;;;5.67;75.40;97185.81;5014780;28;20441;-77
2022/01/30 10:17:32;;;;;;;13.70;2.63;;;;;;;6.31;73.68;97189.19;5044223;28;20035;-77
2022/01/30 10:20:01;;;;;;;9.73;2.20;;;;;;;5.31;74.27;97179.56;5032596;28;20135;-75
2022/01/30 10:22:27;;;;;;;6.77;1.83;;;;;;;5.23;75.39;97191.41;5017034;28;20033;-76
2022/01/30 10:24:52;;;;;;;15.10;2.73;;;;;;;4.87;76.07;97190.34;5057056;28;20032;-75
2022/01/30 10:27:27;;;;;;;12.00;2.10;;;;;;;5.11;76.17;97182.66;5035879;28;20047;-75
2022/01/30 10:29:59;;;;;;;13.23;2.70;;;;;;;6.07;73.58;97186.53;5031481;28;20055;-76
2022/01/30 10:32:26;;;;;;;11.53;2.70;;;;;;;5.56;73.67;97199.56;5031261;28;20479;-76
2022/01/30 10:35:03;;;;;;;16.03;3.83;;;;;;;4.94;79.72;97217.66;5029287;28;20172;-74
2022/01/30 10:37:30;;;;;;;12.57;2.33;;;;;;;4.17;77.51;97216.50;5031791;28;20040;-76
2022/01/30 10:39:58;;;;;;;20.60;5.17;;;;;;;3.97;77.93;97210.75;5036239;28;20113;-74
2022/01/30 10:42:38;;;;;;;15.27;4.00;;;;;;;3.77;82.09;97216.34;5014125;28;20057;-76
2022/01/30 10:45:10;;;;;;;17.07;4.27;;;;;;;3.77;83.20;97213.75;5018585;28;20034;-74
2022/01/30 10:47:37;;;;;;;15.53;4.53;;;;;;;3.44;78.88;97212.25;5034789;28;20569;-75
2022/01/30 10:50:19;;;;;;;19.97;3.70;;;;;;;3.43;78.33;97210.56;5014136;28;20679;-75
2022/01/30 10:52:53;;;;;;;15.30;3.60;;;;;;;3.44;79.25;97207.03;5038869;28;20091;-75
2022/01/30 10:55:41;;;;;;;67.20;37.33;;;;;;;3.78;77.99;97211.03;5016858;28;20057;-75
2022/01/30 10:58:10;;;;;;;10.93;2.20;;;;;;;3.54;77.37;97217.72;5004430;28;20041;-74
2022/01/30 11:00:56;;;;;;;13.57;2.70;;;;;;;4.20;76.15;97218.91;5006680;28;20120;-76
2022/01/30 11:03:50;;;;;;;13.80;2.83;;;;;;;4.92;72.44;97217.75;5029683;28;20039;-74
2022/01/30 11:06:16;;;;;;;12.35;2.53;;;;;;;5.48;71.06;97206.28;5012574;28;20017;-76
2022/01/30 11:08:46;;;;;;;12.23;2.13;;;;;;;5.78;67.54;97203.34;5031167;28;20577;-76
2022/01/30 11:11:30;;;;;;;11.60;2.27;;;;;;;6.30;66.05;97202.31;5048738;28;20041;-76
2022/01/30 11:14:15;;;;;;;15.68;5.32;;;;;;;6.87;65.70;97195.63;5003529;28;20037;-76
2022/01/30 11:17:03;;;;;;;17.10;5.13;;;;;;;6.87;67.21;97196.44;5032609;28;20049;-76
2022/01/30 11:19:34;;;;;;;13.83;2.80;;;;;;;7.04;64.37;97196.06;5016261;28;20482;-75
2022/01/30 11:22:01;;;;;;;10.97;2.30;;;;;;;6.38;64.85;97187.78;5031379;28;20039;-76
2022/01/30 11:24:27;;;;;;;15.37;4.03;;;;;;;6.09;68.07;97196.84;5028208;28;20034;-75
2022/01/30 11:26:54;;;;;;;12.47;3.00;;;;;;;6.38;66.56;97213.91;5057009;28;20026;-75
2022/01/30 11:29:20;;;;;;;19.73;4.17;;;;;;;6.44;67.90;97206.56;5015652;28;20033;-75
2022/01/30 11:31:47;;;;;;;15.67;3.07;;;;;;;6.21;66.86;97201.22;5012079;28;20561;-75
2022/01/30 11:34:13;;;;;;;10.30;3.03;;;;;;;6.49;67.63;97197.47;5025117;28;20033;-75
2022/01/30 11:36:41;;;;;;;11.30;2.50;;;;;;;6.61;67.45;97196.59;5033785;28;20041;-75
2022/01/30 11:39:08;;;;;;;11.50;3.20;;;;;;;6.70;66.62;97191.63;5031522;28;20498;-76
2022/01/30 11:41:35;;;;;;;14.43;2.70;;;;;;;6.73;65.07;97196.63;5028204;28;20077;-74
2022/01/30 11:44:19;;;;;;;10.90;2.37;;;;;;;6.81;65.59;97189.09;5029606;28;20075;-74
2022/01/30 11:46:51;;;;;;;18.10;5.37;;;;;;;6.72;66.46;97205.44;5009765;28;20487;-74
2022/01/30 11:49:18;;;;;;;9.68;3.05;;;;;;;7.36;64.96;97199.84;5052540;28;20042;-74
2022/01/30 11:51:51;;;;;;;15.13;2.87;;;;;;;7.55;65.05;97194.88;5037788;28;20505;-74
2022/01/30 11:54:48;;;;;;;13.90;2.47;;;;;;;7.39;66.85;97200.44;5027715;28;20109;-74
2022/01/30 11:57:22;;;;;;;9.90;2.37;;;;;;;7.28;65.41;97188.16;5024633;28;20728;-74
2022/01/30 11:59:49;;;;;;;7.53;1.60;;;;;;;6.81;66.25;97189.09;5019221;28;20037;-75
2022/01/30 12:02:29;;;;;;;11.37;2.60;;;;;;;7.16;66.63;97188.25;5034618;28;20024;-74
2022/01/30 12:04:58;;;;;;;17.00;3.23;;;;;;;6.53;67.80;97200.69;5027439;28;20037;-74
2022/01/30 12:07:46;;;;;;;9.87;2.50;;;;;;;7.04;66.17;97195.22;5026606;28;20465;-74
2022/01/30 12:10:21;;;;;;;11.43;2.50;;;;;;;6.61;66.95;97190.53;5060698;28;20060;-75
2022/01/30 12:12:54;;;;;;;9.60;2.40;;;;;;;7.00;67.24;97183.31;5009675;28;20064;-75
2022/01/30 12:15:36;;;;;;;12.60;2.40;;;;;;;6.48;70.76;97189.75;5061117;28;20031;-75
2022/01/30 12:18:07;;;;;;;11.83;2.07;;;;;;;5.67;69.85;97188.44;5037972;28;20095;-75
2022/01/30 12:21:01;;;;;;;7.37;1.77;;;;;;;5.46;70.60;97187.28;5014744;28;20034;-74
2022/01/30 12:23:28;;;;;;;14.23;2.90;;;;;;;5.61;71.05;97199.28;5032792;28;20033;-75
2022/01/30 12:26:01;;;;;;;10.30;2.30;;;;;;;5.35;71.27;97217.53;5040026;28;20100;-75
2022/01/30 12:28:48;;;;;;;10.40;2.05;;;;;;;5.18;71.35;97210.00;5037873;28;20479;-75
2022/01/30 12:31:34;;;;;;;10.30;2.47;;;;;;;5.53;68.64;97209.38;5014580;28;20055;-75
2022/01/30 12:34:04;;;;;;;8.60;3.00;;;;;;;6.09;68.19;97215.13;5019702;28;20087;-75
2022/01/30 12:36:32;;;;;;;11.47;3.10;;;;;;;6.87;67.01;97208.69;5059604;28;20101;-74
2022/01/30 12:39:01;;;;;;;9.10;2.33;;;;;;;6.07;67.14;97203.94;5033094;28;20041;-75
2022/01/30 12:41:29;;;;;;;7.40;2.03;;;;;;;5.64;68.75;97194.69;5040567;28;20036;-75
2022/01/30 12:43:58;;;;;;;9.73;1.80;;;;;;;5.19;68.94;97206.44;5018881;28;20132;-75
2022/01/30 12:46:29;;;;;;;10.60;2.90;;;;;;;4.80;71.58;97221.16;5070174;28;20037;-75
2022/01/30 12:49:06;;;;;;;11.40;2.43;;;;;;;4.88;72.16;97216.28;5068069;28;20120;-74